Time;durP1;ratioP1;P1;durP2;ratioP2;P2;SDS_P1;SDS_P2;PMS_P1;PMS_P2;Temp;Humidity;BMP_temperature;BMP_pressure;BME280_temperature;BME280_humidity;BME280_pressure;Samples;Min_cycle;Max_cycle;Signal;HPM_P1;HPM_P2
2023/07/24 00:00:51;;;;;;;4.10;3.05;;;;;;;23.15;100.00;99266.94;5046637;28;20690;-60
2023/07/24 00:03:18;;;;;;;6.78;3.42;;;;;;;23.14;100.00;99265.34;5046539;28;20203;-60
2023/07/24 00:05:45;;;;;;;5.55;3.30;;;;;;;23.15;100.00;99261.72;5046669;28;20203;-60
2023/07/24 00:08:13;;;;;;;4.18;2.75;;;;;;;23.18;100.00;99261.34;5046736;28;20196;-60
2023/07/24 00:10:40;;;;;;;3.10;2.70;;;;;;;23.12;100.00;99272.53;5046990;28;20203;-60
2023/07/24 00:13:07;;;;;;;4.95;3.03;;;;;;;23.10;100.00;99264.13;5046334;28;20612;-60
2023/07/24 00:15:34;;;;;;;7.75;2.95;;;;;;;23.06;100.00;99268.06;5046506;28;20204;-60
2023/07/24 00:18:00;;;;;;;4.45;3.13;;;;;;;23.08;100.00;99271.31;5046432;28;20199;-60
2023/07/24 00:20:27;;;;;;;4.82;3.20;;;;;;;23.08;100.00;99260.88;5046650;28;20210;-60
2023/07/24 00:22:54;;;;;;;3.28;2.60;;;;;;;23.06;100.00;99262.88;5046393;28;20200;-60
2023/07/24 00:25:22;;;;;;;5.57;3.20;;;;;;;23.07;100.00;99263.66;5046624;28;20195;-60
2023/07/24 00:27:49;;;;;;;3.60;2.95;;;;;;;23.06;100.00;99257.66;5046195;28;20198;-60
2023/07/24 00:30:16;;;;;;;3.63;2.97;;;;;;;23.01;100.00;99254.81;5046349;28;20200;-60
2023/07/24 00:32:43;;;;;;;4.25;3.03;;;;;;;22.97;100.00;99253.56;5046392;28;20231;-60
2023/07/24 00:35:10;;;;;;;6.70;3.15;;;;;;;22.94;100.00;99259.91;5046275;28;20739;-60
2023/07/24 00:37:37;;;;;;;5.50;2.90;;;;;;;22.93;100.00;99260.13;5046340;28;20196;-60
2023/07/24 00:40:04;;;;;;;3.40;2.80;;;;;;;22.82;100.00;99254.41;5045603;28;20191;-60
2023/07/24 00:42:32;;;;;;;4.63;3.15;;;;;;;22.83;100.00;99258.63;5046291;28;20199;-60
2023/07/24 00:44:59;;;;;;;4.78;3.13;;;;;;;22.76;100.00;99249.91;5046050;28;20676;-60
2023/07/24 00:47:27;;;;;;;3.40;2.88;;;;;;;22.75;100.00;99256.13;5046567;28;20206;-60
2023/07/24 00:49:55;;;;;;;4.82;3.22;;;;;;;22.73;100.00;99252.91;5046044;28;20222;-60
2023/07/24 00:52:22;;;;;;;6.22;3.28;;;;;;;22.74;100.00;99253.69;5044938;28;20238;-60
2023/07/24 00:54:50;;;;;;;4.50;3.22;;;;;;;22.70;100.00;99253.28;5044276;28;20196;-61
2023/07/24 00:57:17;;;;;;;4.47;3.20;;;;;;;22.65;100.00;99250.41;5044859;28;20207;-60
2023/07/24 00:59:46;;;;;;;5.65;3.00;;;;;;;22.64;100.00;99253.22;5046206;28;20652;-60
2023/07/24 01:02:13;;;;;;;4.35;3.13;;;;;;;22.59;100.00;99253.75;5045598;28;20226;-60
2023/07/24 01:04:40;;;;;;;5.93;3.40;;;;;;;22.59;100.00;99243.34;5046033;28;20203;-60
2023/07/24 01:07:07;;;;;;;6.97;3.08;;;;;;;22.58;100.00;99249.53;5045878;28;20206;-60
2023/07/24 01:09:34;;;;;;;3.88;2.97;;;;;;;22.59;100.00;99253.75;5045575;28;20199;-60
2023/07/24 01:12:08;;;;;;;6.05;2.88;;;;;;;22.56;100.00;99241.09;5045562;28;20231;-60
2023/07/24 01:14:45;;;;;;;3.95;2.83;;;;;;;22.53;100.00;99241.47;5045761;28;20213;-60
2023/07/24 01:17:17;;;;;;;4.35;2.95;;;;;;;22.48;100.00;99243.81;5045756;28;20381;-60
2023/07/24 01:19:48;;;;;;;4.40;2.83;;;;;;;22.44;100.00;99242.56;5045536;28;20192;-60
2023/07/24 01:22:25;;;;;;;3.55;2.90;;;;;;;22.40;100.00;99251.72;5045643;28;20284;-60
2023/07/24 01:25:07;;;;;;;4.63;2.92;;;;;;;22.33;100.00;99242.03;5045767;28;20203;-60
2023/07/24 01:27:35;;;;;;;4.35;2.92;;;;;;;22.32;100.00;99248.25;5045858;28;20503;-60
2023/07/24 01:30:02;;;;;;;4.75;2.90;;;;;;;22.33;100.00;99247.25;5045323;28;20199;-60
2023/07/24 01:32:29;;;;;;;5.10;3.05;;;;;;;22.33;100.00;99241.25;5045201;28;20315;-60
2023/07/24 01:34:56;;;;;;;4.28;3.25;;;;;;;22.34;100.00;99238.47;5045429;28;20207;-60
2023/07/24 01:37:24;;;;;;;4.22;2.88;;;;;;;22.32;100.00;99240.44;5045250;28;20314;-60
2023/07/24 01:39:52;;;;;;;5.75;3.40;;;;;;;22.26;100.00;99241.16;5045356;28;20207;-60
2023/07/24 01:42:19;;;;;;;4.80;3.17;;;;;;;22.19;100.00;99244.66;5045274;28;20676;-60
2023/07/24 01:44:52;;;;;;;5.72;3.30;;;;;;;22.20;100.00;99252.31;5045318;28;20196;-60
2023/07/24 01:47:19;;;;;;;4.13;3.28;;;;;;;22.20;100.00;99247.13;5045177;28;20191;-60
2023/07/24 01:49:46;;;;;;;4.10;3.20;;;;;;;22.19;100.00;99247.28;5045064;28;20207;-60
2023/07/24 01:52:12;;;;;;;4.72;3.38;;;;;;;22.14;100.00;99250.41;5043980;28;20231;-60
2023/07/24 01:54:39;;;;;;;3.50;2.88;;;;;;;22.08;100.00;99253.75;5045128;28;20206;-60
2023/07/24 01:57:06;;;;;;;5.10;3.28;;;;;;;21.96;100.00;99255.97;5044980;28;20207;-60
2023/07/24 01:59:33;;;;;;;7.10;3.50;;;;;;;21.87;100.00;99257.84;5045117;28;20196;-60
2023/07/24 02:02:01;;;;;;;6.72;3.80;;;;;;;21.89;100.00;99261.09;5045018;28;20628;-60
2023/07/24 02:04:28;;;;;;;8.32;4.00;;;;;;;21.80;100.00;99256.97;5044697;28;20202;-60
2023/07/24 02:06:55;;;;;;;8.32;4.10;;;;;;;21.80;100.00;99261.38;5044879;28;20216;-60
2023/07/24 02:09:22;;;;;;;7.13;3.97;;;;;;;21.78;100.00;99253.72;5045105;28;20652;-61
2023/07/24 02:11:48;;;;;;;5.97;3.83;;;;;;;21.79;100.00;99250.16;5044602;28;20239;-60
2023/07/24 02:14:17;;;;;;;4.80;3.35;;;;;;;21.78;100.00;99242.50;5044829;28;20214;-60
2023/07/24 02:16:43;;;;;;;6.35;3.75;;;;;;;21.77;100.00;99241.72;5044752;28;20203;-60
2023/07/24 02:19:12;;;;;;;6.03;3.67;;;;;;;21.74;100.00;99247.28;5044078;28;20207;-60
2023/07/24 02:21:40;;;;;;;7.72;4.18;;;;;;;21.62;100.00;99239.09;5043095;28;20203;-60
2023/07/24 02:24:07;;;;;;;6.57;3.63;;;;;;;21.56;100.00;99244.22;5043371;28;20211;-60
2023/07/24 02:26:34;;;;;;;4.47;3.30;;;;;;;21.46;100.00;99240.06;5044580;28;20211;-60
2023/07/24 02:29:01;;;;;;;6.10;3.57;;;;;;;21.44;100.00;99236.84;5044555;28;20207;-60
2023/07/24 02:31:27;;;;;;;5.43;3.38;;;;;;;21.44;100.00;99236.84;5044419;28;20699;-60
2023/07/24 02:33:54;;;;;;;5.63;3.78;;;;;;;21.41;100.00;99237.19;5044716;28;20227;-60
2023/07/24 02:36:23;;;;;;;5.65;3.30;;;;;;;21.37;100.00;99241.13;5044789;28;20214;-60
2023/07/24 02:38:50;;;;;;;6.68;3.63;;;;;;;21.28;100.00;99247.34;5044422;28;20195;-60
2023/07/24 02:41:17;;;;;;;7.73;3.97;;;;;;;21.18;100.00;99242.41;5044489;28;20204;-60
2023/07/24 02:43:44;;;;;;;5.13;3.20;;;;;;;21.16;100.00;99244.38;5044789;28;20210;-60
2023/07/24 02:46:10;;;;;;;6.37;4.07;;;;;;;21.16;100.00;99246.16;5044490;28;20221;-60
2023/07/24 02:48:37;;;;;;;7.97;4.37;;;;;;;21.18;100.00;99246.81;5044372;28;20198;-60
2023/07/24 02:51:04;;;;;;;10.00;3.80;;;;;;;21.14;100.00;99248.91;5044338;28;20230;-60
2023/07/24 02:53:32;;;;;;;6.93;4.30;;;;;;;21.10;100.00;99249.47;5044362;28;20249;-60
2023/07/24 02:55:59;;;;;;;6.77;4.07;;;;;;;21.08;100.00;99256.63;5044457;28;20207;-60
2023/07/24 02:58:26;;;;;;;5.90;4.00;;;;;;;21.11;100.00;99249.28;5044093;28;20210;-60
2023/07/24 03:00:53;;;;;;;6.97;4.10;;;;;;;21.16;100.00;99251.38;5044176;28;20510;-60
2023/07/24 03:03:19;;;;;;;5.83;3.83;;;;;;;21.13;100.00;99254.31;5046325;28;20592;-60
2023/07/24 03:05:46;;;;;;;5.63;3.70;;;;;;;21.13;100.00;99254.31;5047785;28;20584;-60
2023/07/24 03:08:13;;;;;;;4.70;3.30;;;;;;;21.12;100.00;99250.06;5047638;28;20196;-60
2023/07/24 03:10:42;;;;;;;7.17;3.80;;;;;;;21.21;100.00;99259.44;5047681;28;20205;-60
2023/07/24 03:13:09;;;;;;;6.17;4.13;;;;;;;21.19;100.00;99269.22;5047563;28;20230;-60
2023/07/24 03:15:36;;;;;;;5.97;4.17;;;;;;;21.22;100.00;99268.88;5047613;28;20215;-60
2023/07/24 03:18:03;;;;;;;6.60;4.17;;;;;;;21.27;100.00;99266.56;5047546;28;20216;-60
2023/07/24 03:20:30;;;;;;;7.13;3.73;;;;;;;21.30;100.00;99255.78;5047289;28;20215;-60
2023/07/24 03:22:57;;;;;;;7.40;3.90;;;;;;;21.32;100.00;99261.63;5047326;28;20196;-60
2023/07/24 03:25:24;;;;;;;5.13;3.10;;;;;;;21.34;100.00;99262.25;5047601;28;20203;-60
2023/07/24 03:27:52;;;;;;;8.48;4.05;;;;;;;21.30;100.00;99268.81;5047287;28;20211;-60
2023/07/24 03:30:19;;;;;;;5.20;3.47;;;;;;;21.29;100.00;99264.56;5047233;28;20211;-60
2023/07/24 03:32:46;;;;;;;7.27;4.00;;;;;;;21.33;100.00;99255.44;5047132;28;20239;-60
2023/07/24 03:35:12;;;;;;;4.97;3.23;;;;;;;21.41;100.00;99254.56;5047507;28;20622;-60
2023/07/24 03:37:39;;;;;;;6.00;3.63;;;;;;;21.43;100.00;99250.81;5047217;28;20216;-60
2023/07/24 03:40:07;;;;;;;5.10;3.37;;;;;;;21.46;100.00;99250.47;5047137;28;20222;-60
2023/07/24 03:42:34;;;;;;;5.30;3.40;;;;;;;21.50;100.00;99250.94;5047025;28;20199;-60
2023/07/24 03:45:02;;;;;;;6.83;3.80;;;;;;;21.45;100.00;99248.84;5047100;28;20619;-60
2023/07/24 03:47:29;;;;;;;8.53;4.10;;;;;;;21.50;100.00;99239.69;5047198;28;20210;-60
2023/07/24 03:49:56;;;;;;;5.13;3.33;;;;;;;21.55;100.00;99237.38;5047088;28;20196;-60
2023/07/24 03:52:23;;;;;;;5.93;3.37;;;;;;;21.54;100.00;99233.97;5046617;28;20242;-60
2023/07/24 03:54:49;;;;;;;10.30;3.93;;;;;;;21.58;100.00;99242.22;5046932;28;20199;-60
2023/07/24 03:57:16;;;;;;;5.47;3.37;;;;;;;21.64;100.00;99241.50;5046748;28;20584;-60
2023/07/24 03:59:43;;;;;;;8.37;3.57;;;;;;;21.72;100.00;99240.63;5046978;28;20195;-60
2023/07/24 04:02:11;;;;;;;7.60;3.73;;;;;;;21.82;100.00;99234.19;5047192;28;20204;-60
2023/07/24 04:04:38;;;;;;;5.45;3.25;;;;;;;21.91;100.00;99222.69;5046652;28;20207;-60
2023/07/24 04:07:06;;;;;;;5.80;3.80;;;;;;;21.99;100.00;99236.56;5046686;28;20208;-60
2023/07/24 04:09:33;;;;;;;5.97;3.33;;;;;;;22.05;100.00;99233.25;5046658;28;20204;-60
2023/07/24 04:12:00;;;;;;;6.07;3.50;;;;;;;22.07;100.00;99226.06;5046645;28;20204;-60
2023/07/24 04:14:27;;;;;;;5.82;3.78;;;;;;;22.12;100.00;99239.38;5045634;28;20747;-60
2023/07/24 04:16:55;;;;;;;5.53;3.33;;;;;;;22.15;100.00;99233.78;5046486;28;20215;-60
2023/07/24 04:19:23;;;;;;;5.75;3.75;;;;;;;22.17;100.00;99237.06;5046574;28;20200;-60
2023/07/24 04:21:50;;;;;;;5.60;3.67;;;;;;;22.15;100.00;99239.00;5046426;28;20227;-60
2023/07/24 04:24:17;;;;;;;7.20;3.63;;;;;;;22.13;100.00;99246.19;5046414;28;20203;-60
2023/07/24 04:26:44;;;;;;;5.90;3.70;;;;;;;22.16;100.00;99240.59;5046456;28;20206;-60
2023/07/24 04:29:10;;;;;;;8.23;3.53;;;;;;;22.26;100.00;99246.38;5046349;28;20203;-60
2023/07/24 04:31:37;;;;;;;5.57;3.70;;;;;;;22.28;100.00;99249.63;5046603;28;20208;-61
2023/07/24 04:34:04;;;;;;;5.55;3.75;;;;;;;22.37;100.00;99251.13;5046449;28;20239;-60
2023/07/24 04:36:32;;;;;;;6.85;3.40;;;;;;;22.52;100.00;99256.28;5046255;28;20210;-60
2023/07/24 04:38:59;;;;;;;5.75;3.80;;;;;;;22.62;100.00;99244.75;5046473;28;20195;-60
2023/07/24 04:41:26;;;;;;;6.57;3.55;;;;;;;22.74;100.00;99257.13;5046153;28;20210;-60
2023/07/24 04:43:53;;;;;;;5.35;3.40;;;;;;;22.83;100.00;99248.22;5046238;28;20203;-60
2023/07/24 04:46:19;;;;;;;7.90;3.78;;;;;;;22.92;100.00;99253.28;5046133;28;20695;-60
2023/07/24 04:48:46;;;;;;;6.55;3.90;;;;;;;22.99;100.00;99251.56;5046245;28;20206;-60
2023/07/24 04:51:13;;;;;;;5.60;3.33;;;;;;;23.07;100.00;99254.06;5046198;28;20594;-60
2023/07/24 04:53:41;;;;;;;5.38;3.60;;;;;;;23.14;100.00;99249.69;5045884;28;20235;-60
2023/07/24 04:56:08;;;;;;;5.57;3.50;;;;;;;23.27;100.00;99255.03;5046043;28;20200;-60
2023/07/24 04:58:35;;;;;;;7.55;3.72;;;;;;;23.47;100.00;99249.97;5045843;28;20208;-60
2023/07/24 05:01:04;;;;;;;5.80;3.60;;;;;;;23.65;100.00;99254.69;5045901;28;20217;-60
2023/07/24 05:03:31;;;;;;;5.05;3.70;;;;;;;23.82;100.00;99247.38;5045634;28;20200;-60
2023/07/24 05:05:58;;;;;;;7.18;3.70;;;;;;;23.93;100.00;99248.66;5045747;28;20235;-60
2023/07/24 05:08:25;;;;;;;5.47;3.85;;;;;;;24.07;100.00;99255.56;5045874;28;20195;-60
2023/07/24 05:10:56;;;;;;;5.55;3.83;;;;;;;24.23;100.00;99254.44;5045668;28;20207;-60
2023/07/24 05:13:23;;;;;;;7.68;4.38;;;;;;;24.31;100.00;99256.84;5045684;28;20223;-60
2023/07/24 05:15:50;;;;;;;7.82;3.30;;;;;;;24.49;100.00;99253.72;5045731;28;20211;-60
2023/07/24 05:18:17;;;;;;;4.88;3.45;;;;;;;24.75;100.00;99257.41;5045821;28;20537;-61
2023/07/24 05:20:46;;;;;;;5.03;3.30;;;;;;;24.95;100.00;99252.19;5045509;28;20658;-61
2023/07/24 05:23:13;;;;;;;5.50;3.70;;;;;;;25.15;100.00;99260.09;5045548;28;20256;-60
2023/07/24 05:25:40;;;;;;;4.97;3.38;;;;;;;25.30;98.33;99260.69;5045423;28;20294;-60
2023/07/24 05:28:08;;;;;;;5.53;3.80;;;;;;;25.49;100.00;99254.66;5045731;28;20199;-60
2023/07/24 05:30:35;;;;;;;5.63;3.33;;;;;;;25.67;99.74;99266.31;5045536;28;20223;-60
2023/07/24 05:33:02;;;;;;;5.13;3.55;;;;;;;25.86;95.76;99262.03;5045426;28;20231;-60
2023/07/24 05:35:29;;;;;;;5.53;3.88;;;;;;;26.08;93.05;99257.34;5045368;28;20437;-60
2023/07/24 05:37:56;;;;;;;5.60;3.38;;;;;;;26.28;97.94;99263.31;5045440;28;20200;-60
2023/07/24 05:40:23;;;;;;;6.95;4.13;;;;;;;26.50;92.27;99268.28;5045262;28;20675;-60
2023/07/24 05:42:49;;;;;;;6.85;3.63;;;;;;;26.39;87.06;99265.28;5045225;28;20320;-60
2023/07/24 05:45:18;;;;;;;5.43;3.22;;;;;;;26.61;87.85;99273.66;5045157;28;20203;-61
2023/07/24 05:47:45;;;;;;;6.05;3.63;;;;;;;26.74;86.91;99267.53;5045273;28;20285;-60
2023/07/24 05:50:13;;;;;;;12.90;3.30;;;;;;;26.95;89.22;99269.00;5045467;28;20603;-60
2023/07/24 05:52:40;;;;;;;7.43;3.90;;;;;;;27.19;91.80;99270.06;5045051;28;20625;-61
2023/07/24 05:55:08;;;;;;;7.90;4.07;;;;;;;27.39;90.92;99271.72;5045019;28;20211;-67
2023/07/24 05:57:35;;;;;;;7.82;3.88;;;;;;;27.59;86.92;99264.47;5044934;28;20909;-67
2023/07/24 06:00:02;;;;;;;5.60;3.75;;;;;;;27.77;87.67;99263.69;5045286;28;20203;-66
2023/07/24 06:02:30;;;;;;;6.45;3.97;;;;;;;27.89;82.01;99269.03;5044978;28;20212;-64
2023/07/24 06:04:57;;;;;;;6.60;3.35;;;;;;;27.98;83.15;99267.72;5044651;28;20259;-66
2023/07/24 06:07:25;;;;;;;6.65;3.97;;;;;;;28.02;81.72;99266.28;5045017;28;20199;-66
2023/07/24 06:09:52;;;;;;;7.25;3.97;;;;;;;28.18;82.00;99267.50;5044838;28;20637;-66
2023/07/24 06:12:18;;;;;;;4.75;3.50;;;;;;;28.34;80.10;99266.88;5044797;28;20202;-65
2023/07/24 06:14:45;;;;;;;5.60;3.67;;;;;;;28.42;79.85;99271.03;5044762;28;20226;-66
2023/07/24 06:17:12;;;;;;;5.53;3.60;;;;;;;28.67;83.86;99263.03;5044884;28;20191;-68
2023/07/24 06:19:40;;;;;;;5.93;3.83;;;;;;;28.78;79.15;99267.53;5044669;28;20226;-67
2023/07/24 06:22:08;;;;;;;6.15;3.55;;;;;;;28.92;78.74;99267.34;5044603;28;20600;-65
2023/07/24 06:24:35;;;;;;;6.50;3.85;;;;;;;28.96;78.25;99264.00;5044759;28;20204;-64
2023/07/24 06:27:02;;;;;;;5.30;3.50;;;;;;;29.02;79.10;99265.75;5044898;28;20592;-65
2023/07/24 06:29:28;;;;;;;5.65;3.90;;;;;;;29.22;77.85;99268.09;5044238;28;20204;-65
2023/07/24 06:31:55;;;;;;;6.53;3.85;;;;;;;29.37;77.79;99272.91;5043729;28;20230;-64
2023/07/24 06:34:22;;;;;;;6.25;3.90;;;;;;;29.53;79.15;99274.84;5044138;28;20707;-64
2023/07/24 06:36:50;;;;;;;7.70;4.07;;;;;;;29.64;78.19;99273.28;5044782;28;20223;-65
2023/07/24 06:39:17;;;;;;;6.30;3.70;;;;;;;29.60;73.30;99279.19;5048185;28;20207;-65
2023/07/24 06:41:44;;;;;;;5.75;3.50;;;;;;;29.70;79.50;99274.16;5048037;28;20196;-65
2023/07/24 06:44:11;;;;;;;5.10;3.78;;;;;;;29.91;76.49;99270.94;5048311;28;20199;-65
2023/07/24 06:46:38;;;;;;;4.78;3.63;;;;;;;30.11;80.59;99275.03;5048014;28;20702;-65
2023/07/24 06:49:04;;;;;;;4.57;3.63;;;;;;;30.26;74.00;99277.97;5047999;28;20199;-65
2023/07/24 06:51:31;;;;;;;4.63;3.70;;;;;;;30.37;77.48;99265.75;5047877;28;20200;-65
2023/07/24 06:53:59;;;;;;;4.47;3.63;;;;;;;30.44;79.10;99271.72;5047814;28;20231;-64
2023/07/24 06:56:26;;;;;;;4.82;3.47;;;;;;;30.63;75.02;99278.41;5047765;28;20196;-65
2023/07/24 06:58:53;;;;;;;5.32;3.70;;;;;;;30.49;68.40;99276.28;5047737;28;20565;-65
2023/07/24 07:01:20;;;;;;;5.72;3.63;;;;;;;30.20;71.44;99269.13;5047559;28;20207;-65
2023/07/24 07:03:47;;;;;;;4.05;3.20;;;;;;;30.32;71.24;99270.97;5047800;28;20433;-65
2023/07/24 07:06:14;;;;;;;4.65;3.40;;;;;;;30.29;72.68;99266.97;5047681;28;20223;-64
2023/07/24 07:08:40;;;;;;;8.13;3.80;;;;;;;30.31;74.59;99274.63;5047865;28;20227;-65
2023/07/24 07:11:09;;;;;;;6.03;3.70;;;;;;;30.23;73.70;99273.19;5047659;28;20203;-65
2023/07/24 07:13:35;;;;;;;5.80;3.85;;;;;;;30.28;74.89;99273.25;5047561;28;20258;-65
2023/07/24 07:16:02;;;;;;;4.38;3.33;;;;;;;30.44;77.68;99263.81;5047751;28;20334;-65
2023/07/24 07:18:29;;;;;;;5.18;3.58;;;;;;;30.51;75.98;99271.56;5047522;28;20199;-65
2023/07/24 07:20:56;;;;;;;4.35;3.38;;;;;;;30.54;68.62;99268.44;5047579;28;20219;-65
2023/07/24 07:23:23;;;;;;;10.68;3.40;;;;;;;30.70;70.56;99266.88;5047165;28;20692;-65
2023/07/24 07:25:51;;;;;;;4.88;3.38;;;;;;;30.74;69.15;99262.72;5047296;28;20206;-65
2023/07/24 07:28:19;;;;;;;5.45;3.75;;;;;;;30.86;71.28;99266.94;5048061;28;20203;-66
2023/07/24 07:30:46;;;;;;;5.25;3.55;;;;;;;31.06;67.24;99271.72;5047350;28;20200;-65
2023/07/24 07:33:13;;;;;;;6.03;3.40;;;;;;;31.01;63.32;99273.50;5047332;28;20196;-63
2023/07/24 07:35:40;;;;;;;5.03;2.88;;;;;;;31.19;65.77;99265.34;5047287;28;20208;-65
2023/07/24 07:38:07;;;;;;;4.70;3.55;;;;;;;31.25;61.21;99260.94;5047237;28;20208;-68
2023/07/24 07:40:34;;;;;;;108.70;59.15;;;;;;;31.31;67.88;99258.13;5047289;28;20200;-67
2023/07/24 07:43:00;;;;;;;6.07;4.55;;;;;;;31.53;63.78;99254.72;5047095;28;20254;-68
2023/07/24 07:45:29;;;;;;;3.40;2.90;;;;;;;31.65;62.87;99260.72;5047013;28;20200;-65
2023/07/24 07:47:56;;;;;;;4.57;3.38;;;;;;;31.84;63.60;99255.13;5047021;28;20210;-65
2023/07/24 07:50:22;;;;;;;4.25;3.17;;;;;;;32.08;65.91;99256.50;5045845;28;20566;-65
2023/07/24 07:52:51;;;;;;;4.07;3.20;;;;;;;32.21;60.67;99244.75;5046862;28;20195;-67
2023/07/24 07:55:18;;;;;;;3.90;3.03;;;;;;;32.26;64.30;99239.50;5047047;28;20280;-66
2023/07/24 07:57:44;;;;;;;4.03;2.80;;;;;;;32.46;61.26;99245.03;5047123;28;20212;-66
2023/07/24 08:00:12;;;;;;;4.10;3.13;;;;;;;32.48;60.21;99244.78;5046813;28;20207;-65
2023/07/24 08:02:41;;;;;;;3.58;3.20;;;;;;;32.55;61.11;99245.38;5046827;28;20210;-64
2023/07/24 08:05:08;;;;;;;3.75;3.10;;;;;;;32.70;62.36;99247.38;5046678;28;20208;-63
2023/07/24 08:07:35;;;;;;;4.63;3.35;;;;;;;32.91;61.97;99243.81;5046715;28;20238;-65
2023/07/24 08:10:02;;;;;;;4.25;3.08;;;;;;;32.67;56.05;99246.00;5046687;28;20211;-66
2023/07/24 08:12:29;;;;;;;5.55;3.17;;;;;;;32.99;58.01;99239.13;5046912;28;20207;-66
2023/07/24 08:14:57;;;;;;;3.58;3.08;;;;;;;33.19;60.48;99244.56;5046806;28;20231;-65
2023/07/24 08:17:24;;;;;;;3.60;2.90;;;;;;;33.37;56.52;99243.34;5046592;28;20207;-65
2023/07/24 08:19:52;;;;;;;3.70;2.80;;;;;;;33.45;51.33;99237.53;5046587;28;21062;-65
2023/07/24 08:22:19;;;;;;;3.90;2.92;;;;;;;33.37;50.51;99238.06;5046632;28;20211;-66
2023/07/24 08:24:50;;;;;;;3.40;2.90;;;;;;;33.43;49.62;99244.97;5046585;28;20264;-65
2023/07/24 08:27:17;;;;;;;3.65;2.92;;;;;;;33.34;50.49;99225.31;5046481;28;20684;-63
2023/07/24 08:29:43;;;;;;;4.15;3.25;;;;;;;33.32;49.10;99232.72;5046407;28;20200;-65
2023/07/24 08:32:10;;;;;;;7.00;3.40;;;;;;;33.09;50.65;99240.00;5046275;28;20210;-65
2023/07/24 08:34:37;;;;;;;3.28;2.70;;;;;;;32.99;49.91;99236.47;5046188;28;20223;-66
2023/07/24 08:37:06;;;;;;;4.03;2.85;;;;;;;33.18;48.60;99235.03;5046563;28;20196;-67
2023/07/24 08:39:33;;;;;;;3.88;3.00;;;;;;;33.38;47.94;99228.25;5046473;28;20700;-66
2023/07/24 08:42:00;;;;;;;4.63;3.38;;;;;;;33.52;53.00;99224.91;5046408;28;20675;-65
2023/07/24 08:44:30;;;;;;;3.92;2.97;;;;;;;33.77;51.15;99226.06;5046041;28;20206;-63
2023/07/24 08:46:58;;;;;;;4.00;2.95;;;;;;;33.63;45.47;99228.41;5046075;28;20202;-64
2023/07/24 08:49:26;;;;;;;3.45;2.78;;;;;;;33.61;49.29;99222.56;5046157;28;20718;-66
2023/07/24 08:51:54;;;;;;;6.00;2.80;;;;;;;33.46;42.55;99231.22;5045989;28;20228;-66
2023/07/24 08:54:24;;;;;;;3.28;2.80;;;;;;;33.48;44.33;99220.34;5045823;28;20242;-67
2023/07/24 08:56:52;;;;;;;3.45;2.80;;;;;;;33.66;47.81;99216.47;5046457;28;20208;-67
2023/07/24 08:59:19;;;;;;;3.70;2.72;;;;;;;33.77;47.62;99218.09;5045906;28;20196;-66
2023/07/24 09:01:46;;;;;;;3.13;2.75;;;;;;;33.79;48.54;99216.00;5045786;28;20211;-67
2023/07/24 09:04:13;;;;;;;3.58;2.78;;;;;;;33.85;45.90;99214.16;5045698;28;20192;-65
2023/07/24 09:06:39;;;;;;;6.53;2.92;;;;;;;33.90;49.71;99216.84;5045746;28;20345;-65
2023/07/24 09:09:13;;;;;;;3.40;2.80;;;;;;;34.14;47.57;99217.19;5045804;28;20687;-66
2023/07/24 09:11:49;;;;;;;4.10;2.92;;;;;;;34.38;45.67;99212.16;5045898;28;20275;-67
2023/07/24 09:14:26;;;;;;;5.30;3.10;;;;;;;34.61;42.55;99213.53;5045832;28;20253;-64
2023/07/24 09:17:03;;;;;;;5.53;2.90;;;;;;;34.72;39.52;99217.78;5045780;28;20218;-64
2023/07/24 09:19:30;;;;;;;3.78;2.47;;;;;;;34.48;41.75;99205.00;5045929;28;20215;-64
2023/07/24 09:22:08;;;;;;;3.90;3.13;;;;;;;34.14;41.80;99211.88;5045713;28;20199;-62
2023/07/24 09:24:34;;;;;;;4.05;3.00;;;;;;;34.10;41.21;99205.50;5045814;28;20191;-64
2023/07/24 09:27:06;;;;;;;3.35;2.72;;;;;;;34.26;42.95;99204.44;5045453;28;20204;-66
2023/07/24 09:29:34;;;;;;;3.67;2.92;;;;;;;34.54;41.32;99199.72;5045457;28;20199;-65
2023/07/24 09:32:01;;;;;;;3.45;2.78;;;;;;;34.76;42.74;99197.59;5045700;27;20218;-65
2023/07/24 09:34:28;;;;;;;3.67;2.90;;;;;;;35.04;42.29;99187.47;5045506;28;20223;-66
2023/07/24 09:36:55;;;;;;;8.57;3.00;;;;;;;35.14;41.56;99192.75;5045088;28;20226;-65
2023/07/24 09:39:25;;;;;;;8.35;2.90;;;;;;;35.15;40.26;99186.41;5045748;28;20206;-65
2023/07/24 09:41:52;;;;;;;3.95;2.83;;;;;;;34.82;38.50;99185.09;5045475;28;20199;-66
2023/07/24 09:44:20;;;;;;;4.00;2.97;;;;;;;34.85;37.31;99185.38;5045206;28;20200;-66
2023/07/24 09:46:48;;;;;;;4.07;3.10;;;;;;;35.04;38.75;99174.16;5045234;28;20603;-66
2023/07/24 09:49:15;;;;;;;4.18;3.20;;;;;;;35.07;38.83;99171.78;5045302;28;20204;-66
2023/07/24 09:51:48;;;;;;;4.68;3.22;;;;;;;35.27;42.09;99165.63;5045108;28;20224;-65
2023/07/24 09:54:23;;;;;;;4.38;2.78;;;;;;;35.57;42.11;99153.28;5045195;28;20219;-65
2023/07/24 09:56:52;;;;;;;3.83;2.80;;;;;;;35.56;36.29;99157.03;5044499;28;20207;-65
2023/07/24 09:59:22;;;;;;;3.78;2.88;;;;;;;35.59;39.25;99151.16;5044385;28;20589;-66
2023/07/24 10:01:49;;;;;;;3.78;2.72;;;;;;;35.65;40.71;99155.38;5045149;28;20636;-65
2023/07/24 10:04:17;;;;;;;3.55;3.00;;;;;;;35.98;40.51;99153.84;5045178;28;20291;-65
2023/07/24 10:06:45;;;;;;;3.85;2.83;;;;;;;35.86;37.23;99149.94;5045254;28;20222;-65
2023/07/24 10:09:12;;;;;;;3.85;2.70;;;;;;;36.10;38.52;99144.75;5044996;28;20691;-65
2023/07/24 10:11:39;;;;;;;4.10;2.85;;;;;;;35.73;35.42;99149.47;5044159;28;20480;-66
2023/07/24 10:14:06;;;;;;;3.17;2.50;;;;;;;35.89;38.62;99149.38;5044593;28;20195;-65
2023/07/24 10:16:35;;;;;;;3.88;2.90;;;;;;;36.18;40.86;99142.28;5045036;28;20206;-65
2023/07/24 10:19:02;;;;;;;3.70;2.80;;;;;;;36.38;36.01;99140.53;5044687;28;20199;-66
2023/07/24 10:21:29;;;;;;;4.70;2.90;;;;;;;36.47;33.79;99139.63;5044648;28;20222;-66
2023/07/24 10:23:55;;;;;;;3.60;2.92;;;;;;;36.72;37.23;99140.53;5044694;28;20651;-66
2023/07/24 10:26:27;;;;;;;4.75;2.90;;;;;;;36.98;37.29;99132.25;5044812;28;20514;-65
2023/07/24 10:28:54;;;;;;;5.20;3.40;;;;;;;37.11;33.07;99127.03;5044578;28;20761;-66
2023/07/24 10:31:23;;;;;;;4.60;2.72;;;;;;;36.92;31.51;99118.97;5044523;28;20200;-66
2023/07/24 10:33:52;;;;;;;4.15;3.00;;;;;;;36.68;31.82;99116.31;5044559;28;20391;-65
2023/07/24 10:36:22;;;;;;;3.88;2.90;;;;;;;36.65;31.74;99114.22;5044871;28;20608;-66
2023/07/24 10:38:53;;;;;;;3.35;2.80;;;;;;;36.78;32.28;99110.06;5044541;28;20251;-65
2023/07/24 10:41:20;;;;;;;3.50;2.60;;;;;;;36.95;34.74;99106.97;5044443;28;20196;-66
2023/07/24 10:43:49;;;;;;;4.10;2.88;;;;;;;37.16;34.86;99097.66;5044778;28;20211;-65
2023/07/24 10:46:17;;;;;;;4.80;3.08;;;;;;;37.15;30.77;99101.41;5044580;28;20210;-66
2023/07/24 10:48:45;;;;;;;3.58;2.70;;;;;;;37.34;34.23;99097.97;5044537;28;20668;-63
2023/07/24 10:51:15;;;;;;;3.95;2.95;;;;;;;37.41;35.11;99095.75;5044369;28;20283;-63
2023/07/24 10:53:45;;;;;;;4.70;3.30;;;;;;;37.06;35.11;99096.97;5044428;28;20212;-65
2023/07/24 10:56:12;;;;;;;3.92;2.80;;;;;;;36.80;34.91;99083.94;5044393;28;20235;-66
2023/07/24 10:58:39;;;;;;;5.97;3.35;;;;;;;36.70;32.31;99079.50;5044322;28;20208;-65
2023/07/24 11:01:07;;;;;;;4.13;3.20;;;;;;;36.71;30.88;99075.78;5044313;28;20703;-65
2023/07/24 11:03:37;;;;;;;5.35;3.00;;;;;;;36.82;33.69;99070.31;5044254;28;20261;-65
2023/07/24 11:06:04;;;;;;;4.70;3.22;;;;;;;36.90;32.22;99067.03;5044066;28;20643;-65
2023/07/24 11:08:36;;;;;;;5.20;3.80;;;;;;;37.08;30.85;99058.31;5044107;28;20199;-65
2023/07/24 11:11:04;;;;;;;4.82;3.58;;;;;;;37.22;29.98;99062.94;5044478;28;20187;-66
2023/07/24 11:13:31;;;;;;;4.38;3.53;;;;;;;37.49;32.51;99062.31;5044685;28;20204;-66
2023/07/24 11:16:04;;;;;;;6.20;4.03;;;;;;;37.44;29.64;99060.50;5043980;28;20313;-66
2023/07/24 11:18:31;;;;;;;5.22;3.65;;;;;;;37.40;31.20;99054.13;5044603;28;20223;-65
2023/07/24 11:20:58;;;;;;;5.82;3.63;;;;;;;37.57;32.30;99059.78;5044149;28;20577;-66
2023/07/24 11:23:25;;;;;;;6.35;3.50;;;;;;;37.54;31.85;99052.38;5044828;28;20204;-66
2023/07/24 11:25:55;;;;;;;5.05;3.72;;;;;;;37.53;31.89;99047.34;5047804;28;20204;-66
2023/07/24 11:28:22;;;;;;;4.97;3.70;;;;;;;37.71;33.75;99037.72;5047329;28;20218;-66
2023/07/24 11:30:49;;;;;;;5.57;3.70;;;;;;;37.85;33.56;99043.91;5047344;28;20203;-66